Time;durP1;ratioP1;P1;durP2;ratioP2;P2;SDS_P1;SDS_P2;PMS_P1;PMS_P2;Temp;Humidity;BMP_temperature;BMP_pressure;BME280_temperature;BME280_humidity;BME280_pressure;Samples;Min_cycle;Max_cycle;Signal;HPM_P1;HPM_P2
2020/12/14 00:00:16;;;;;;;19.55;13.93;;;;;;;0.68;83.64;99584.10;1683029;84;21570;-62
2020/12/14 00:02:43;;;;;;;19.57;13.98;;;;;;;0.79;83.31;99578.09;1683373;85;21142;-62
2020/12/14 00:05:11;;;;;;;24.60;15.85;;;;;;;0.71;83.38;99570.83;1703282;84;21150;-62
2020/12/14 00:07:38;;;;;;;22.42;14.65;;;;;;;0.63;83.59;99579.09;1686022;83;21165;-62
2020/12/14 00:10:07;;;;;;;17.82;12.13;;;;;;;0.56;83.76;99576.95;1661219;85;21143;-62
2020/12/14 00:12:35;;;;;;;15.72;10.80;;;;;;;0.66;83.51;99574.13;1651161;86;21197;-63
2020/12/14 00:15:04;;;;;;;17.65;12.58;;;;;;;0.72;83.31;99575.13;1668718;85;21377;-62
2020/12/14 00:17:33;;;;;;;20.02;12.70;;;;;;;0.64;83.51;99582.87;1668847;86;21173;-62
2020/12/14 00:20:01;;;;;;;19.25;12.85;;;;;;;0.57;83.74;99586.64;1666738;86;21648;-62
2020/12/14 00:22:30;;;;;;;16.10;11.28;;;;;;;0.65;83.58;99583.70;1649778;86;21138;-62
2020/12/14 00:24:58;;;;;;;17.90;11.80;;;;;;;0.76;83.29;99587.06;1670528;86;21234;-62
2020/12/14 00:27:25;;;;;;;20.62;14.07;;;;;;;0.70;83.40;99582.56;1664096;85;21319;-62
2020/12/14 00:29:52;;;;;;;18.35;13.03;;;;;;;0.64;83.63;99582.08;1650396;86;21339;-62
2020/12/14 00:32:20;;;;;;;18.67;11.10;;;;;;;0.62;83.73;99583.62;1619679;86;21342;-62
2020/12/14 00:34:47;;;;;;;17.20;12.47;;;;;;;0.74;83.33;99581.11;1641874;86;21173;-62
2020/12/14 00:37:15;;;;;;;16.10;11.93;;;;;;;0.71;83.30;99580.20;1632630;86;21307;-62
2020/12/14 00:39:42;;;;;;;19.12;12.07;;;;;;;0.61;83.51;99575.27;1654187;86;21150;-62
2020/12/14 00:42:10;;;;;;;16.32;11.48;;;;;;;0.65;83.48;99582.36;1621431;87;21177;-62
2020/12/14 00:44:37;;;;;;;18.75;13.90;;;;;;;0.78;83.13;99583.13;1693237;84;21142;-62
2020/12/14 00:47:04;;;;;;;18.37;12.98;;;;;;;0.74;83.24;99583.28;1704593;84;21150;-62
2020/12/14 00:49:32;;;;;;;20.85;14.30;;;;;;;0.67;83.45;99574.44;1638351;85;21139;-62
2020/12/14 00:52:04;;;;;;;19.17;12.85;;;;;;;0.61;83.62;99582.48;1666939;83;21154;-62
2020/12/14 00:54:32;;;;;;;19.52;13.80;;;;;;;0.73;83.32;99582.14;1710440;83;21748;-62
2020/12/14 00:57:00;;;;;;;23.90;16.45;;;;;;;0.77;83.10;99577.48;1690668;83;21356;-62
2020/12/14 00:59:27;;;;;;;23.45;15.32;;;;;;;0.70;83.36;99577.20;1717672;83;21141;-62
2020/12/14 01:01:54;;;;;;;23.95;15.98;;;;;;;0.63;83.57;99574.55;1698725;83;21210;-62
2020/12/14 01:04:22;;;;;;;21.90;14.33;;;;;;;0.72;83.40;99577.80;1708369;83;21121;-62
2020/12/14 01:06:53;;;;;;;22.65;16.37;;;;;;;0.83;83.02;99571.78;1703938;83;21219;-62
2020/12/14 01:09:21;;;;;;;24.60;16.50;;;;;;;0.77;83.21;99579.34;1684377;83;21291;-62
2020/12/14 01:11:49;;;;;;;20.60;13.48;;;;;;;0.68;83.44;99576.58;1717462;83;21165;-63
2020/12/14 01:14:17;;;;;;;22.50;14.05;;;;;;;0.61;83.62;99571.25;1680623;85;21157;-62
2020/12/14 01:16:47;;;;;;;20.97;15.00;;;;;;;0.67;83.47;99570.42;1691196;83;21609;-62
2020/12/14 01:19:14;;;;;;;20.72;13.53;;;;;;;0.77;83.24;99576.15;1696814;83;21133;-62
2020/12/14 01:21:42;;;;;;;22.70;14.95;;;;;;;0.69;83.42;99569.68;1679803;85;21334;-61
2020/12/14 01:25:06;;;;;;;18.85;13.05;;;;;;;0.66;83.72;99570.11;1800813;77;22994;-61
2020/12/14 01:27:34;;;;;;;18.37;12.53;;;;;;;0.71;83.47;99570.28;1732475;80;21137;-61
2020/12/14 01:30:02;;;;;;;21.80;14.07;;;;;;;0.78;83.25;99564.92;1754144;80;21153;-61
2020/12/14 01:32:29;;;;;;;19.15;14.13;;;;;;;0.70;83.44;99570.51;1771064;80;21129;-61
2020/12/14 01:34:56;;;;;;;22.05;14.20;;;;;;;0.61;83.73;99569.08;1759145;81;21149;-61
2020/12/14 01:37:24;;;;;;;18.62;12.45;;;;;;;0.67;83.74;99572.27;1759710;81;21185;-62
2020/12/14 01:39:51;;;;;;;21.37;14.83;;;;;;;0.70;83.51;99572.67;1730630;81;21185;-61
2020/12/14 01:42:22;;;;;;;18.73;12.63;;;;;;;0.61;83.71;99574.44;1759138;80;21157;-62
2020/12/14 01:44:50;;;;;;;15.70;10.30;;;;;;;0.56;83.91;99575.09;1740461;81;21145;-61
2020/12/14 01:47:30;;;;;;;17.80;11.90;;;;;;;0.70;83.58;99578.55;1706160;83;21189;-62
2020/12/14 01:49:58;;;;;;;18.45;12.55;;;;;;;0.67;83.64;99571.77;1712045;83;21649;-62
2020/12/14 01:52:25;;;;;;;16.12;11.10;;;;;;;0.60;83.85;99572.30;1705963;83;21702;-61
2020/12/14 01:54:53;;;;;;;14.80;10.50;;;;;;;0.63;83.90;99571.05;1711601;83;21318;-62
2020/12/14 01:57:21;;;;;;;14.70;10.32;;;;;;;0.77;83.49;99573.98;1706491;83;21160;-62
2020/12/14 01:59:48;;;;;;;13.75;10.75;;;;;;;0.74;83.57;99573.90;1694234;83;21323;-61
2020/12/14 02:02:16;;;;;;;16.10;11.10;;;;;;;0.70;83.71;99575.36;1707700;83;21291;-61
2020/12/14 02:04:44;;;;;;;15.93;10.88;;;;;;;0.67;83.73;99573.61;1681416;84;21336;-62
2020/12/14 02:07:11;;;;;;;15.93;12.18;;;;;;;0.79;83.35;99566.03;1706676;83;21328;-62
2020/12/14 02:09:39;;;;;;;18.02;12.45;;;;;;;0.82;83.22;99568.80;1685999;84;21723;-62
2020/12/14 02:12:06;;;;;;;17.25;13.48;;;;;;;0.74;83.43;99568.55;1706617;83;21307;-62
2020/12/14 02:14:36;;;;;;;15.78;11.63;;;;;;;0.64;83.66;99566.80;1688252;83;21297;-61
2020/12/14 02:17:05;;;;;;;17.07;11.05;;;;;;;0.69;83.57;99565.66;1731124;83;21797;-62
2020/12/14 02:19:32;;;;;;;15.38;11.30;;;;;;;0.80;83.21;99569.53;1724632;83;21192;-62
2020/12/14 02:22:00;;;;;;;16.73;11.35;;;;;;;0.73;83.37;99570.08;1690098;84;21185;-62
2020/12/14 02:24:27;;;;;;;17.17;11.25;;;;;;;0.65;83.63;99577.83;1676789;84;21117;-62
2020/12/14 02:26:54;;;;;;;14.03;9.55;;;;;;;0.68;83.65;99576.06;1641578;84;21226;-62
2020/12/14 02:29:21;;;;;;;13.05;9.23;;;;;;;0.81;83.28;99581.39;1648157;86;21221;-62
2020/12/14 02:31:49;;;;;;;15.30;10.70;;;;;;;0.76;83.29;99582.53;1682071;83;21123;-62
2020/12/14 02:34:16;;;;;;;16.27;11.30;;;;;;;0.68;83.53;99579.26;1701364;83;21205;-62
2020/12/14 02:36:44;;;;;;;13.30;10.20;;;;;;;0.62;83.69;99577.43;1736381;82;21191;-62
2020/12/14 02:39:11;;;;;;;16.77;11.48;;;;;;;0.73;83.42;99574.09;1687810;83;21185;-62
2020/12/14 02:41:39;;;;;;;15.65;11.50;;;;;;;0.78;83.18;99574.30;1715198;83;21217;-62
2020/12/14 02:44:06;;;;;;;18.05;12.03;;;;;;;0.69;83.38;99576.38;1688212;83;21311;-62
2020/12/14 02:46:33;;;;;;;15.15;9.45;;;;;;;0.61;83.59;99568.57;1691195;83;21120;-62
2020/12/14 02:49:01;;;;;;;14.63;11.00;;;;;;;0.66;83.47;99570.62;1702675;83;21303;-62
2020/12/14 02:51:28;;;;;;;15.18;10.88;;;;;;;0.70;83.36;99569.99;1702817;83;21645;-62
2020/12/14 02:53:55;;;;;;;16.67;11.68;;;;;;;0.64;83.52;99578.06;1676061;83;21176;-62
2020/12/14 02:56:23;;;;;;;14.28;10.23;;;;;;;0.57;83.70;99575.92;1673170;82;21182;-62
2020/12/14 02:58:50;;;;;;;16.73;11.18;;;;;;;0.63;83.55;99574.55;1709776;82;21216;-62
2020/12/14 03:01:18;;;;;;;16.05;10.90;;;;;;;0.72;83.27;99580.48;1729496;82;21291;-62
2020/12/14 03:03:46;;;;;;;16.73;11.78;;;;;;;0.67;83.46;99574.44;1719879;83;21327;-62
2020/12/14 03:06:13;;;;;;;14.33;10.30;;;;;;;0.61;83.69;99577.94;1701158;82;21173;-62
2020/12/14 03:08:40;;;;;;;14.87;10.10;;;;;;;0.70;83.59;99575.36;1688773;83;21739;-62
2020/12/14 03:11:08;;;;;;;15.72;10.30;;;;;;;0.85;83.21;99580.45;1705030;82;21307;-62
2020/12/14 03:13:35;;;;;;;15.25;9.90;;;;;;;0.80;83.28;99584.27;1700967;82;21334;-62
2020/12/14 03:16:03;;;;;;;16.37;10.05;;;;;;;0.73;83.45;99573.59;1692047;83;21170;-62
2020/12/14 03:18:30;;;;;;;13.22;9.78;;;;;;;0.66;83.58;99575.47;1614498;85;21177;-62
2020/12/14 03:20:58;;;;;;;14.90;10.08;;;;;;;0.73;83.41;99572.76;1629935;86;21249;-62
2020/12/14 03:23:27;;;;;;;14.93;10.28;;;;;;;0.78;83.19;99576.43;1667860;83;21181;-62
2020/12/14 03:25:55;;;;;;;14.87;10.65;;;;;;;0.70;83.36;99570.51;1648944;85;21153;-62
2020/12/14 03:28:22;;;;;;;13.62;9.65;;;;;;;0.63;83.57;99563.84;1656095;86;21145;-62
2020/12/14 03:30:50;;;;;;;14.45;10.43;;;;;;;0.69;83.43;99569.68;1624660;86;21226;-62
2020/12/14 03:33:18;;;;;;;14.10;9.90;;;;;;;0.77;83.18;99572.13;1678691;84;21182;-61
2020/12/14 03:35:47;;;;;;;13.68;10.65;;;;;;;0.71;83.32;99570.83;1699302;84;21247;-62
2020/12/14 03:38:15;;;;;;;13.13;9.60;;;;;;;0.63;83.54;99566.52;1697303;84;21761;-62
2020/12/14 03:40:43;;;;;;;13.60;9.15;;;;;;;0.67;83.42;99562.39;1697790;84;21604;-62
2020/12/14 03:43:10;;;;;;;12.95;9.38;;;;;;;0.73;83.18;99566.89;1692163;85;21197;-62
2020/12/14 03:45:38;;;;;;;15.85;9.90;;;;;;;0.66;83.42;99566.09;1663432;85;21338;-62
2020/12/14 03:48:05;;;;;;;13.85;9.03;;;;;;;0.61;83.52;99572.59;1689295;85;21593;-62
2020/12/14 03:50:33;;;;;;;14.18;8.88;;;;;;;0.72;83.25;99574.61;1645240;85;21349;-62
2020/12/14 03:53:00;;;;;;;13.72;9.73;;;;;;;0.71;83.26;99581.00;1675571;84;21305;-62
2020/12/14 03:55:28;;;;;;;14.00;10.08;;;;;;;0.64;83.49;99580.20;1692171;85;21344;-62
2020/12/14 03:57:55;;;;;;;12.65;8.40;;;;;;;0.60;83.59;99587.04;1692334;85;21573;-62
2020/12/14 04:00:23;;;;;;;14.53;9.70;;;;;;;0.73;83.20;99583.47;1686135;85;21142;-61
2020/12/14 04:02:50;;;;;;;15.75;10.53;;;;;;;0.73;83.18;99588.83;1746256;82;21137;-61
2020/12/14 04:05:17;;;;;;;14.98;10.08;;;;;;;0.66;83.39;99593.39;1715691;82;21187;-61
2020/12/14 04:07:45;;;;;;;14.70;9.55;;;;;;;0.62;83.60;99590.31;1712815;82;21332;-61
2020/12/14 04:10:12;;;;;;;13.38;9.83;;;;;;;0.73;83.31;99586.98;1699871;83;21314;-62
2020/12/14 04:12:39;;;;;;;14.78;10.10;;;;;;;0.78;82.99;99595.73;1704243;82;21173;-62
2020/12/14 04:15:07;;;;;;;13.58;9.98;;;;;;;0.73;83.18;99596.36;1716207;82;21262;-62
2020/12/14 04:17:34;;;;;;;13.62;9.25;;;;;;;0.67;83.33;99599.06;1675350;83;21177;-62
2020/12/14 04:20:02;;;;;;;13.32;9.13;;;;;;;0.77;83.17;99603.45;1682625;84;21169;-62
2020/12/14 04:22:29;;;;;;;12.43;8.40;;;;;;;0.86;82.75;99596.30;1700823;82;21201;-62
2020/12/14 04:24:57;;;;;;;14.95;10.88;;;;;;;0.85;82.84;99596.53;1670871;84;21189;-62
2020/12/14 04:27:24;;;;;;;14.58;10.48;;;;;;;0.80;83.08;99592.31;1665686;83;21585;-62
2020/12/14 04:29:51;;;;;;;13.48;9.20;;;;;;;0.75;83.15;99591.59;1730604;82;21601;-61
2020/12/14 04:32:19;;;;;;;14.98;9.88;;;;;;;0.83;82.84;99584.67;1670423;83;21159;-62
2020/12/14 04:34:47;;;;;;;15.18;9.05;;;;;;;0.84;82.74;99595.70;1684858;82;21191;-62
2020/12/14 04:37:15;;;;;;;17.23;11.05;;;;;;;0.74;82.96;99599.87;1683437;82;21185;-62
2020/12/14 04:39:42;;;;;;;17.55;11.40;;;;;;;0.66;83.20;99590.20;1691006;83;21177;-62
2020/12/14 04:42:09;;;;;;;19.42;12.37;;;;;;;0.78;83.03;99591.72;1717264;82;21212;-62
2020/12/14 04:44:37;;;;;;;26.52;14.28;;;;;;;0.84;82.75;99593.54;1724909;82;21154;-62
2020/12/14 04:47:04;;;;;;;22.62;13.85;;;;;;;0.77;82.87;99596.76;1718526;82;21165;-61
2020/12/14 04:49:33;;;;;;;19.92;12.10;;;;;;;0.69;83.04;99592.97;1692559;82;21165;-61
2020/12/14 04:52:01;;;;;;;19.67;12.37;;;;;;;0.73;82.91;99601.72;1661620;86;21173;-62
2020/12/14 04:54:28;;;;;;;14.78;10.43;;;;;;;0.84;82.55;99607.77;1712333;82;21344;-62
2020/12/14 04:56:55;;;;;;;16.70;11.97;;;;;;;0.79;82.73;99610.75;1733809;82;21279;-62
2020/12/14 04:59:26;;;;;;;18.10;12.13;;;;;;;0.71;82.92;99601.63;1718903;83;21150;-62
2020/12/14 05:01:57;;;;;;;14.87;10.30;;;;;;;0.65;83.13;99608.64;1738769;82;21162;-61
2020/12/14 05:04:24;;;;;;;15.03;10.72;;;;;;;0.72;83.01;99613.46;1717094;82;21213;-61
2020/12/14 05:06:51;;;;;;;16.40;10.90;;;;;;;0.82;82.75;99616.52;1689535;83;21169;-62
2020/12/14 05:09:20;;;;;;;15.45;10.75;;;;;;;0.77;82.92;99619.02;1721616;82;21221;-62
2020/12/14 05:11:47;;;;;;;14.80;9.73;;;;;;;0.71;83.08;99624.41;1716838;83;21715;-62
2020/12/14 05:14:21;;;;;;;16.42;10.53;;;;;;;0.65;83.21;99625.23;1690259;83;21165;-62
2020/12/14 05:16:49;;;;;;;13.30;10.15;;;;;;;0.72;82.97;99628.20;1731695;82;21867;-62
2020/12/14 05:19:28;;;;;;;14.25;10.53;;;;;;;0.77;82.79;99629.74;1717121;82;21169;-62
2020/12/14 05:21:59;;;;;;;17.50;12.07;;;;;;;0.69;82.96;99636.66;1684967;84;21165;-62
2020/12/14 05:24:30;;;;;;;13.83;9.70;;;;;;;0.59;83.16;99632.77;1716863;82;21215;-62
2020/12/14 05:26:59;;;;;;;13.53;9.90;;;;;;;0.64;83.07;99623.61;1731842;82;21278;-62
2020/12/14 05:29:30;;;;;;;14.05;10.32;;;;;;;0.73;82.86;99631.70;1711710;83;21363;-63
2020/12/14 05:32:11;;;;;;;15.55;10.78;;;;;;;0.68;83.01;99630.98;1741611;82;21145;-61
2020/12/14 05:34:42;;;;;;;16.67;11.55;;;;;;;0.59;83.15;99642.98;1711230;83;21770;-62
2020/12/14 05:37:13;;;;;;;17.80;11.88;;;;;;;0.60;83.20;99646.48;1724028;82;21571;-62
2020/12/14 05:39:42;;;;;;;17.82;11.70;;;;;;;0.76;82.83;99644.67;1691258;83;21339;-62
2020/12/14 05:42:19;;;;;;;17.62;12.15;;;;;;;0.74;82.84;99646.75;1735830;82;21194;-62
2020/12/14 05:44:49;;;;;;;17.70;12.07;;;;;;;0.67;83.06;99662.03;1745965;82;21184;-62
2020/12/14 05:47:30;;;;;;;14.00;10.65;;;;;;;0.60;83.25;99671.93;1748463;82;21133;-62
2020/12/14 05:50:00;;;;;;;19.30;12.30;;;;;;;0.66;83.09;99668.41;1747835;82;21177;-62
2020/12/14 05:52:33;;;;;;;18.00;12.78;;;;;;;0.77;82.78;99681.16;1711699;83;21275;-62
2020/12/14 05:55:01;;;;;;;21.80;14.18;;;;;;;0.71;82.99;99685.48;1739376;82;21141;-62
2020/12/14 05:57:34;;;;;;;20.62;13.60;;;;;;;0.67;83.19;99695.00;1714000;83;21152;-62
2020/12/14 06:00:06;;;;;;;19.57;12.15;;;;;;;0.64;83.27;99692.72;1719021;82;21149;-62
2020/12/14 06:02:34;;;;;;;17.45;11.80;;;;;;;0.78;83.06;99686.84;1723361;82;21140;-62
2020/12/14 06:05:04;;;;;;;44.33;27.87;;;;;;;0.90;82.66;99683.80;1746824;82;21192;-62
2020/12/14 06:07:32;;;;;;;20.82;14.65;;;;;;;0.86;82.77;99690.09;1748693;82;21145;-61
2020/12/14 06:10:12;;;;;;;20.60;14.90;;;;;;;0.81;82.81;99672.50;1707777;83;21153;-62
2020/12/14 06:12:44;;;;;;;19.48;13.68;;;;;;;0.72;82.88;99687.66;1718282;82;21153;-62
2020/12/14 06:15:14;;;;;;;14.15;9.65;;;;;;;0.81;82.56;99683.22;1739023;82;21148;-62
2020/12/14 06:17:41;;;;;;;14.18;8.98;;;;;;;0.83;82.36;99681.14;1701948;83;21132;-62
2020/12/14 06:20:18;;;;;;;14.80;10.38;;;;;;;0.73;82.55;99678.59;1741272;82;21173;-62
2020/12/14 06:22:49;;;;;;;12.07;8.58;;;;;;;0.62;82.62;99679.23;1722026;82;21176;-62
2020/12/14 06:25:17;;;;;;;13.20;8.70;;;;;;;0.67;82.48;99686.97;1742750;82;21310;-62
2020/12/14 06:27:44;;;;;;;12.80;8.50;;;;;;;0.72;82.31;99680.95;1740916;82;21149;-62
2020/12/14 06:30:36;;;;;;;12.00;9.05;;;;;;;0.62;82.49;99685.92;1742361;81;21312;-62
2020/12/14 06:33:12;;;;;;;11.78;8.13;;;;;;;0.56;82.71;99684.09;1741394;81;21158;-62
2020/12/14 06:35:48;;;;;;;13.78;9.70;;;;;;;0.63;82.57;99676.87;1760556;81;21576;-62
2020/12/14 06:38:40;;;;;;;16.48;11.08;;;;;;;0.68;82.46;99681.89;1741430;81;21273;-62
2020/12/14 06:41:22;;;;;;;20.27;13.32;;;;;;;0.60;82.74;99678.63;1742999;81;21728;-62
2020/12/14 06:44:05;;;;;;;18.30;11.97;;;;;;;0.52;82.98;99683.69;1742154;81;21214;-62
2020/12/14 06:46:33;;;;;;;18.77;12.40;;;;;;;0.63;82.65;99689.75;1725445;82;21158;-62
2020/12/14 06:49:01;;;;;;;22.25;12.93;;;;;;;0.50;82.76;99674.50;1743216;82;21114;-62
2020/12/14 06:51:51;;;;;;;18.77;12.88;;;;;;;0.52;83.05;99689.04;1742939;82;21610;-62
2020/12/14 06:54:41;;;;;;;15.05;11.38;;;;;;;0.53;83.10;99685.34;1743309;81;21167;-62
2020/12/14 06:57:13;;;;;;;17.25;12.70;;;;;;;0.66;82.68;99687.98;1733160;82;21173;-63
2020/12/14 06:59:50;;;;;;;17.25;12.63;;;;;;;0.62;82.79;99693.97;1720155;82;21196;-62
2020/12/14 07:02:18;;;;;;;19.50;13.20;;;;;;;0.56;83.04;99703.67;1753877;81;21148;-62
2020/12/14 07:04:46;;;;;;;16.45;12.10;;;;;;;0.49;83.22;99703.68;1740691;82;21316;-62
2020/12/14 07:07:28;;;;;;;17.07;11.88;;;;;;;0.62;82.94;99707.36;1742629;81;21133;-63
2020/12/14 07:10:15;;;;;;;16.62;11.57;;;;;;;0.70;82.74;99705.81;1690184;84;21710;-62
2020/12/14 07:12:44;;;;;;;17.37;12.65;;;;;;;0.64;82.90;99709.33;1680672;84;21555;-62
2020/12/14 07:15:33;;;;;;;17.65;11.40;;;;;;;0.61;83.10;99707.05;1727413;82;21166;-62
2020/12/14 07:18:10;;;;;;;16.65;11.55;;;;;;;0.69;82.91;99717.03;1742529;81;21465;-62
2020/12/14 07:23:35;;;;;;;19.55;13.32;;;;;;;0.75;82.86;99720.22;1813779;79;23234;-60
2020/12/14 07:26:03;;;;;;;19.27;13.03;;;;;;;0.68;82.96;99723.93;1782506;80;21157;-60
2020/12/14 07:28:39;;;;;;;16.32;10.88;;;;;;;0.77;82.76;99729.40;1762590;80;21117;-60
2020/12/14 07:31:12;;;;;;;16.60;11.33;;;;;;;0.93;82.35;99727.09;1740320;80;21743;-60
2020/12/14 07:33:40;;;;;;;19.62;13.70;;;;;;;0.93;82.39;99732.45;1762906;80;21161;-62
2020/12/14 07:36:10;;;;;;;19.52;12.07;;;;;;;0.89;82.52;99731.22;1692420;84;21165;-62
2020/12/14 07:38:48;;;;;;;20.32;13.83;;;;;;;0.85;82.59;99731.86;1703553;83;21668;-62
2020/12/14 07:41:16;;;;;;;19.20;13.15;;;;;;;0.90;82.30;99725.34;1702883;84;21197;-62
2020/12/14 07:43:50;;;;;;;19.73;13.88;;;;;;;0.97;82.00;99729.66;1704934;83;21185;-62
2020/12/14 07:46:20;;;;;;;20.30;14.65;;;;;;;0.92;82.22;99728.11;1706194;83;21336;-61
2020/12/14 07:48:55;;;;;;;23.62;15.83;;;;;;;0.87;82.43;99731.12;1702521;83;21157;-61
2020/12/14 07:51:24;;;;;;;23.25;15.00;;;;;;;0.83;82.56;99732.58;1702769;83;21134;-61
2020/12/14 07:53:52;;;;;;;20.70;14.07;;;;;;;0.92;82.30;99736.16;1713581;83;21185;-61
2020/12/14 07:56:20;;;;;;;21.00;14.75;;;;;;;0.98;81.82;99739.36;1702829;83;21600;-62
2020/12/14 07:58:48;;;;;;;28.55;16.07;;;;;;;0.91;81.96;99751.13;1708964;83;21169;-61
2020/12/14 08:01:17;;;;;;;24.35;14.75;;;;;;;0.86;82.23;99752.25;1730142;83;21193;-61
2020/12/14 08:03:45;;;;;;;22.98;15.23;;;;;;;0.84;82.41;99747.12;1739159;81;21445;-62
2020/12/14 08:06:18;;;;;;;23.55;15.23;;;;;;;0.93;82.10;99745.02;1748871;81;21185;-61
2020/12/14 08:08:49;;;;;;;24.40;15.10;;;;;;;1.00;81.87;99752.53;1752805;81;21174;-61
2020/12/14 08:11:18;;;;;;;22.65;15.28;;;;;;;0.97;81.98;99758.31;1732466;81;22154;-61
2020/12/14 08:13:50;;;;;;;23.90;14.87;;;;;;;0.90;82.12;99762.36;1736940;81;21284;-62
2020/12/14 08:16:19;;;;;;;22.32;14.40;;;;;;;0.85;82.20;99761.34;1717096;83;21165;-61
2020/12/14 08:18:48;;;;;;;20.40;14.50;;;;;;;0.95;82.01;99760.39;1732893;81;21157;-61
2020/12/14 08:21:24;;;;;;;21.25;13.95;;;;;;;1.07;81.73;99764.58;1733171;81;21169;-61
2020/12/14 08:23:55;;;;;;;23.95;16.65;;;;;;;1.05;81.88;99759.45;1735493;81;21106;-61
2020/12/14 08:26:26;;;;;;;23.00;16.27;;;;;;;1.03;81.92;99756.67;1699302;83;21162;-61
2020/12/14 08:28:59;;;;;;;24.57;16.65;;;;;;;1.00;82.08;99752.53;1706613;83;21154;-61
2020/12/14 08:31:26;;;;;;;25.17;18.02;;;;;;;1.13;81.85;99752.52;1717422;82;21119;-62
2020/12/14 08:33:56;;;;;;;25.52;17.82;;;;;;;1.30;81.37;99742.98;1683135;82;21112;-61
2020/12/14 08:36:24;;;;;;;23.65;16.07;;;;;;;1.28;81.47;99736.16;1690318;82;21210;-61
2020/12/14 08:38:52;;;;;;;24.32;16.70;;;;;;;1.27;81.47;99734.53;1710876;82;21161;-61
2020/12/14 08:41:23;;;;;;;31.70;24.43;;;;;;;1.19;81.40;99726.71;1739509;82;21607;-61
2020/12/14 08:43:53;;;;;;;30.50;24.80;;;;;;;1.24;81.13;99726.37;1725578;82;21153;-61
2020/12/14 08:46:23;;;;;;;33.92;26.55;;;;;;;1.26;81.03;99722.98;1710225;84;21168;-61
2020/12/14 08:48:56;;;;;;;32.70;22.55;;;;;;;1.17;81.16;99720.75;1710470;82;21212;-61
2020/12/14 08:51:26;;;;;;;34.45;21.77;;;;;;;1.08;81.42;99715.30;1710562;82;21471;-62
2020/12/14 08:53:55;;;;;;;29.90;21.48;;;;;;;1.11;81.39;99711.67;1718575;82;21192;-63
2020/12/14 08:56:28;;;;;;;33.10;22.48;;;;;;;1.22;81.02;99708.86;1710390;84;21188;-63
2020/12/14 08:58:57;;;;;;;30.43;19.77;;;;;;;1.17;81.17;99705.45;1709852;82;21594;-64
2020/12/14 09:01:27;;;;;;;39.15;26.25;;;;;;;1.09;81.43;99700.36;1710156;84;21184;-63
2020/12/14 09:04:03;;;;;;;33.98;23.57;;;;;;;0.97;81.67;99700.17;1710874;82;21164;-60
2020/12/14 09:06:36;;;;;;;32.25;21.77;;;;;;;1.00;81.55;99689.54;1710729;82;21307;-61
2020/12/14 09:09:11;;;;;;;31.62;22.93;;;;;;;1.08;81.39;99696.02;1710225;83;21184;-62
2020/12/14 09:11:49;;;;;;;30.48;20.00;;;;;;;1.03;81.52;99695.02;1709516;84;21202;-61
2020/12/14 09:14:25;;;;;;;31.82;22.13;;;;;;;0.98;81.70;99707.19;1711008;82;21319;-61
2020/12/14 09:16:58;;;;;;;32.58;22.90;;;;;;;1.04;81.60;99701.49;1710963;82;21167;-61
2020/12/14 09:19:27;;;;;;;34.10;23.35;;;;;;;1.15;81.37;99708.05;1682150;84;21168;-62
2020/12/14 09:21:55;;;;;;;38.50;23.50;;;;;;;;;;1709264;82;21237;-60
2020/12/14 09:24:28;;;;;;;34.65;21.85;;;;;;;1.10;81.56;99705.20;1694421;83;21137;-62
2020/12/14 09:27:11;;;;;;;35.05;22.70;;;;;;;1.05;81.65;99707.17;1693810;85;21625;-62
2020/12/14 09:29:40;;;;;;;31.23;20.95;;;;;;;1.18;81.36;99717.02;1684892;83;21165;-63
2020/12/14 09:32:09;;;;;;;32.20;20.75;;;;;;;1.31;81.03;99721.01;1696639;83;21211;-62
2020/12/14 09:34:39;;;;;;;27.87;19.37;;;;;;;1.29;81.08;99721.20;1707381;83;21169;-63
2020/12/14 09:37:08;;;;;;;33.10;22.62;;;;;;;1.20;81.06;99726.52;1713956;83;21234;-63
2020/12/14 09:39:35;;;;;;;34.15;22.75;;;;;;;1.09;81.27;99733.04;1720736;83;21173;-63
2020/12/14 09:42:03;;;;;;;33.28;22.52;;;;;;;1.17;81.08;99727.45;1721842;83;21157;-62
2020/12/14 09:44:30;;;;;;;32.25;21.93;;;;;;;1.26;80.70;99727.00;1702279;83;21145;-62
2020/12/14 09:47:00;;;;;;;33.45;22.58;;;;;;;1.21;80.83;99721.95;1713993;83;21720;-62
2020/12/14 09:49:28;;;;;;;32.48;22.65;;;;;;;1.17;81.02;99726.11;1702598;83;21214;-62
2020/12/14 09:51:56;;;;;;;36.08;23.83;;;;;;;1.15;81.19;99724.14;1708363;83;21652;-62
2020/12/14 09:54:24;;;;;;;34.73;22.45;;;;;;;1.21;80.93;99719.27;1717278;83;21158;-62
2020/12/14 09:56:52;;;;;;;35.63;23.65;;;;;;;1.33;80.73;99722.95;1691508;85;21156;-62
2020/12/14 09:59:19;;;;;;;31.93;20.95;;;;;;;1.35;80.88;99730.25;1717353;83;21173;-62
2020/12/14 10:01:47;;;;;;;34.40;22.75;;;;;;;1.34;81.02;99733.98;1690809;84;21216;-62
2020/12/14 10:04:14;;;;;;;33.40;22.62;;;;;;;1.31;80.95;99732.53;1679891;85;21166;-62
2020/12/14 10:06:47;;;;;;;36.17;22.70;;;;;;;1.40;80.65;99725.08;1690175;84;21174;-62
2020/12/14 10:09:15;;;;;;;34.63;24.30;;;;;;;1.49;80.37;99723.80;1660113;85;21311;-62
2020/12/14 10:11:42;;;;;;;35.55;24.05;;;;;;;1.43;80.52;99724.14;1686457;84;21749;-60
2020/12/14 10:14:10;;;;;;;37.33;24.55;;;;;;;1.36;80.74;99730.05;1645594;85;21772;-62
2020/12/14 10:16:37;;;;;;;40.33;25.05;;;;;;;1.32;80.90;99732.02;1695515;84;21173;-62
2020/12/14 10:19:06;;;;;;;44.20;30.60;;;;;;;1.38;80.62;99727.97;1681190;84;21211;-62
2020/12/14 10:21:34;;;;;;;45.03;27.37;;;;;;;1.46;80.35;99729.08;1658892;85;21741;-62
2020/12/14 10:24:01;;;;;;;41.25;28.02;;;;;;;1.43;80.55;99734.05;1688741;84;21562;-63
2020/12/14 10:26:29;;;;;;;39.75;27.48;;;;;;;1.39;80.69;99729.63;1768952;81;21163;-63
2020/12/14 10:28:56;;;;;;;38.17;25.88;;;;;;;1.36;80.63;99733.25;1760321;80;21195;-61
2020/12/14 10:31:24;;;;;;;37.73;25.23;;;;;;;1.45;80.31;99727.97;1757156;80;21153;-60
2020/12/14 10:33:51;;;;;;;39.78;27.02;;;;;;;1.56;80.00;99728.61;1756168;80;21303;-62
2020/12/14 10:36:19;;;;;;;42.27;27.27;;;;;;;1.54;80.14;99728.53;1750828;82;21597;-62
2020/12/14 10:38:47;;;;;;;39.95;27.98;;;;;;;1.50;80.28;99728.13;1752757;80;21167;-62
2020/12/14 10:41:17;;;;;;;48.00;30.15;;;;;;;1.45;80.24;99723.40;1753066;80;21169;-62
2020/12/14 10:43:44;;;;;;;44.38;27.25;;;;;;;1.49;80.10;99725.14;1734546;82;21180;-62
2020/12/14 10:46:12;;;;;;;45.73;28.17;;;;;;;1.59;79.68;99728.72;1753283;80;21595;-62
2020/12/14 10:48:39;;;;;;;46.68;27.67;;;;;;;1.50;79.91;99727.62;1752356;80;21283;-62
2020/12/14 10:51:06;;;;;;;41.13;27.65;;;;;;;1.46;80.18;99726.39;1738360;80;21180;-62
2020/12/14 10:53:34;;;;;;;43.23;26.40;;;;;;;1.46;80.41;99732.27;1713257;83;21138;-62
2020/12/14 10:56:01;;;;;;;41.73;27.07;;;;;;;1.50;80.53;99733.50;1703928;83;21141;-62
2020/12/14 10:58:28;;;;;;;41.42;25.80;;;;;;;1.62;80.22;99730.97;1709284;83;21292;-61
2020/12/14 11:00:56;;;;;;;37.73;25.17;;;;;;;1.75;79.60;99734.41;1697189;84;21149;-61
2020/12/14 11:03:25;;;;;;;39.15;25.27;;;;;;;1.66;79.60;99737.56;1696729;84;21826;-60
2020/12/14 11:05:53;;;;;;;39.67;25.85;;;;;;;1.54;79.79;99739.26;1697339;83;21615;-61
2020/12/14 11:08:21;;;;;;;41.70;27.90;;;;;;;1.41;80.06;99740.16;1699620;83;21324;-63
2020/12/14 11:10:50;;;;;;;42.67;27.55;;;;;;;1.36;80.44;99737.27;1752299;82;21288;-63
2020/12/14 11:13:17;;;;;;;41.33;28.30;;;;;;;1.47;80.36;99740.13;1750976;80;21197;-62
2020/12/14 11:15:44;;;;;;;39.95;27.30;;;;;;;1.64;80.02;99739.11;1765623;80;21209;-61
2020/12/14 11:18:13;;;;;;;42.60;28.30;;;;;;;1.67;80.21;99741.87;1686932;83;21157;-61
2020/12/14 11:20:40;;;;;;;42.25;27.85;;;;;;;1.67;80.29;99739.19;1755848;80;21176;-63
2020/12/14 11:23:08;;;;;;;37.83;25.02;;;;;;;1.64;80.25;99740.45;1753072;82;21161;-61
2020/12/14 11:25:35;;;;;;;43.33;26.85;;;;;;;1.56;80.28;99746.59;1773344;80;21175;-61
2020/12/14 11:28:03;;;;;;;39.70;26.77;;;;;;;1.58;80.06;99744.00;1704289;83;21197;-61
2020/12/14 11:30:30;;;;;;;44.20;26.97;;;;;;;1.65;79.72;99744.78;1762390;80;21612;-61
2020/12/14 11:32:57;;;;;;;38.63;24.87;;;;;;;1.60;79.89;99750.47;1758936;80;21732;-61
2020/12/14 11:35:25;;;;;;;40.43;24.02;;;;;;;1.48;80.27;99740.44;1753428;80;21129;-62
2020/12/14 11:37:52;;;;;;;44.45;27.87;;;;;;;1.36;80.48;99738.09;1751204;82;21319;-61
2020/12/14 11:40:19;;;;;;;40.03;27.20;;;;;;;1.36;80.51;99735.42;1724143;82;21133;-61